map of KFOT home
KFOT - Airport
Location
City:  Fortuna, California, United States
Name:Rohnerville Airport
ICAO:KFOT
FAA LID:FOT

Details
Type:Airport (Airfield)
Use:Public/Civil
Latitude:4033'14"N (40.553944)
Longitude:12407'58"W (-124.132666)
Datum:WGS 1984
Elevation:392 ft (119 m)
Variation:14.32E (WMM2015v2 magnetic declination)
-0.08 annual change
Runways:1
Longest:4005 × 100 ft (1221 × 30.5 m), paved

Time
Time Zone:UTC-8 (DST-7)
Local Time:

Weather
METAR:KFOT 041415Z AUTO 12003KT 9SM BKN020 BKN026 OVC033 04/04 A2951 RMK AO1 P0001

Related Locations
Nearby:
Farthest:FTU: 11246 mi / 18098 km
Tolagnaro [Maurillac Airport (Fort Dauphin Airport)], MG

Find:

   beyond  
but within

Other Information
Maps:
NOTAMs:
Links:
Sources:

  
  • flag of United States
  • flag of California
  

Sectional Chart

Flight Planning
at skyvector.com

Satellite Image

Google Maps Satellite view

 

Copyright © 2004-2019 Karl L. Swartz. All rights reserved.
The Great Circle Mapper name and logo are trademarks of the Great Circle Mapper.
All other trademarks mentioned herein belong to their respective owners.
Please see credits for attibutions and further copyright information.

  Follow gcmap on Facebook Follow gcmap on Twitter GCmap on LinkedIn

hCard Microformat

Geo Microformat